createdAt,value
2019-03-25T00:01:48.501Z,8.67
2019-03-25T00:04:18.431Z,9.50
2019-03-25T00:06:48.538Z,8.40
2019-03-25T00:09:18.430Z,8.53
2019-03-25T00:11:48.328Z,8.30
2019-03-25T00:14:18.230Z,8.37
2019-03-25T00:16:48.181Z,8.37
2019-03-25T00:19:18.122Z,8.67
2019-03-25T00:21:48.005Z,8.53
2019-03-25T00:24:17.924Z,8.00
2019-03-25T00:26:47.809Z,8.37
2019-03-25T00:29:17.698Z,8.90
2019-03-25T00:31:47.613Z,9.03
2019-03-25T00:34:17.553Z,8.83
2019-03-25T00:36:47.462Z,8.40
2019-03-25T00:39:17.406Z,8.43
2019-03-25T00:41:47.355Z,9.10
2019-03-25T00:44:17.277Z,8.57
2019-03-25T00:46:47.187Z,8.40
2019-03-25T00:49:17.082Z,8.77
2019-03-25T00:51:47.017Z,9.03
2019-03-25T00:54:16.908Z,8.93
2019-03-25T00:56:46.825Z,10.53
2019-03-25T00:59:16.765Z,10.33
2019-03-25T01:01:46.665Z,11.53
2019-03-25T01:04:16.605Z,11.43
2019-03-25T01:06:46.526Z,12.17
2019-03-25T01:09:16.419Z,12.03
2019-03-25T01:11:49.283Z,14.07
2019-03-25T01:14:17.965Z,14.70
2019-03-25T01:16:47.949Z,15.97
2019-03-25T01:19:18.063Z,16.20
2019-03-25T01:21:47.899Z,17.33
2019-03-25T01:24:17.825Z,16.50
2019-03-25T01:26:47.783Z,24.83
2019-03-25T01:29:17.688Z,33.53
2019-03-25T01:31:47.604Z,15.77
2019-03-25T01:34:17.543Z,19.67
2019-03-25T01:36:47.452Z,17.07
2019-03-25T01:39:17.378Z,16.40
2019-03-25T01:41:47.347Z,14.67
2019-03-25T01:44:17.242Z,14.30
2019-03-25T01:46:47.207Z,14.63
2019-03-25T01:49:17.102Z,15.30
2019-03-25T01:51:46.976Z,14.80
2019-03-25T01:54:16.902Z,14.97
2019-03-25T01:56:46.884Z,15.27
2019-03-25T01:59:16.787Z,15.17
2019-03-25T02:01:46.700Z,15.40
2019-03-25T02:04:16.624Z,16.27
2019-03-25T02:06:46.563Z,17.77
2019-03-25T02:09:17.392Z,18.30
2019-03-25T02:11:47.344Z,18.33
2019-03-25T02:14:17.234Z,19.80
2019-03-25T02:16:47.176Z,19.37
2019-03-25T02:19:17.231Z,19.97
2019-03-25T02:21:47.124Z,19.03
2019-03-25T02:24:17.037Z,18.37
2019-03-25T02:26:46.953Z,17.80
2019-03-25T02:29:16.886Z,16.90
2019-03-25T02:31:46.771Z,16.93
2019-03-25T02:34:16.707Z,17.33
2019-03-25T02:36:46.580Z,16.17
2019-03-25T02:39:16.519Z,16.83
2019-03-25T02:41:46.439Z,17.47
2019-03-25T02:44:16.327Z,18.20
2019-03-25T02:46:46.227Z,17.90
2019-03-25T02:49:16.217Z,18.53
2019-03-25T02:51:46.087Z,19.47
2019-03-25T02:54:16.025Z,18.70
2019-03-25T02:56:45.939Z,20.23
2019-03-25T02:59:15.869Z,20.17
2019-03-25T03:01:45.763Z,25.27
2019-03-25T03:04:15.793Z,24.90
2019-03-25T03:06:45.688Z,21.90
2019-03-25T03:09:15.610Z,21.90
2019-03-25T03:11:45.549Z,22.40
2019-03-25T03:14:15.686Z,22.93
2019-03-25T03:16:45.673Z,25.30
2019-03-25T03:19:15.634Z,24.00
2019-03-25T03:21:45.545Z,23.53
2019-03-25T03:24:15.493Z,25.50
2019-03-25T03:26:45.447Z,20.40
2019-03-25T03:29:15.377Z,20.20
2019-03-25T03:31:45.373Z,19.30
2019-03-25T03:34:15.301Z,18.87
2019-03-25T03:36:45.207Z,15.77
2019-03-25T03:39:15.107Z,15.30
2019-03-25T03:41:44.996Z,15.40
2019-03-25T03:44:14.948Z,16.47
2019-03-25T03:46:44.950Z,16.67
2019-03-25T03:49:14.840Z,17.03
2019-03-25T03:51:44.832Z,18.67
2019-03-25T03:54:14.755Z,19.00
2019-03-25T03:56:45.079Z,18.87
2019-03-25T03:59:15.749Z,18.70
2019-03-25T04:01:45.659Z,17.77
2019-03-25T04:04:15.634Z,17.30
2019-03-25T04:06:45.542Z,17.03
2019-03-25T04:09:15.456Z,17.80
2019-03-25T04:11:45.439Z,19.27
2019-03-25T04:14:15.364Z,17.40
2019-03-25T04:16:45.345Z,17.90
2019-03-25T04:19:15.211Z,17.00
2019-03-25T04:21:45.148Z,17.40
2019-03-25T04:24:15.075Z,17.80
2019-03-25T04:26:45.051Z,17.70
2019-03-25T04:29:14.987Z,16.10
2019-03-25T04:31:44.888Z,16.37
2019-03-25T04:34:14.770Z,17.13
2019-03-25T04:36:44.702Z,16.37
2019-03-25T04:39:14.607Z,16.17
2019-03-25T04:41:44.527Z,16.40
2019-03-25T04:44:14.466Z,15.47
2019-03-25T04:46:44.379Z,14.67
2019-03-25T04:49:14.309Z,15.00
2019-03-25T04:51:44.943Z,14.77
2019-03-25T04:54:15.097Z,14.20
2019-03-25T04:56:44.999Z,13.93
2019-03-25T04:59:14.917Z,14.57
2019-03-25T05:01:44.833Z,14.33
2019-03-25T05:04:14.770Z,14.00
2019-03-25T05:06:44.772Z,15.30
2019-03-25T05:09:14.684Z,15.40
2019-03-25T05:11:47.203Z,15.17
2019-03-25T05:14:17.172Z,15.90
2019-03-25T05:16:47.172Z,15.87
2019-03-25T05:19:17.089Z,15.03
2019-03-25T05:21:49.107Z,14.30
2019-03-25T05:24:19.071Z,14.83
2019-03-25T05:26:51.293Z,15.40
2019-03-25T05:29:20.767Z,15.33
2019-03-25T05:31:50.695Z,15.57
2019-03-25T05:34:20.621Z,15.80
2019-03-25T05:36:50.563Z,15.97
2019-03-25T05:39:20.448Z,15.10
2019-03-25T05:41:50.374Z,16.97
2019-03-25T05:44:20.266Z,16.17
2019-03-25T05:46:50.214Z,15.30
2019-03-25T05:49:20.119Z,14.90
2019-03-25T05:51:50.039Z,28.20
2019-03-25T05:54:19.948Z,15.53
2019-03-25T05:56:49.876Z,16.07
2019-03-25T05:59:19.860Z,16.80
2019-03-25T06:01:49.924Z,16.93
2019-03-25T06:04:19.829Z,16.43
2019-03-25T06:06:52.055Z,18.73
2019-03-25T06:09:21.315Z,19.07
2019-03-25T06:11:51.228Z,17.63
2019-03-25T06:14:21.136Z,18.13
2019-03-25T06:16:51.050Z,17.67
2019-03-25T06:19:20.963Z,17.97
2019-03-25T06:21:50.889Z,18.30
2019-03-25T06:24:20.838Z,19.13
2019-03-25T06:26:50.833Z,19.00
2019-03-25T06:29:20.762Z,19.23
2019-03-25T06:31:50.660Z,18.07
2019-03-25T06:34:20.580Z,17.67
2019-03-25T06:36:50.483Z,18.50
2019-03-25T06:39:20.380Z,19.57
2019-03-25T06:41:50.304Z,18.37
2019-03-25T06:44:20.199Z,17.97
2019-03-25T06:46:50.106Z,18.00
2019-03-25T06:49:20.039Z,18.30
2019-03-25T06:51:50.045Z,17.77
2019-03-25T06:54:19.954Z,17.50
2019-03-25T06:56:49.860Z,17.37
2019-03-25T06:59:19.800Z,17.23
2019-03-25T07:01:49.705Z,15.80
2019-03-25T07:04:19.630Z,16.10
2019-03-25T07:06:49.513Z,15.93
2019-03-25T07:09:19.405Z,16.70
2019-03-25T07:11:49.638Z,16.53
2019-03-25T07:14:19.556Z,17.17
2019-03-25T07:16:49.473Z,16.27
2019-03-25T07:19:19.382Z,15.87
2019-03-25T07:21:49.310Z,16.60
2019-03-25T07:24:19.229Z,15.83
2019-03-25T07:26:49.129Z,14.87
2019-03-25T07:29:19.058Z,15.43
2019-03-25T07:31:48.949Z,16.10
2019-03-25T07:34:18.850Z,16.60
2019-03-25T07:36:48.743Z,17.80
2019-03-25T07:39:18.651Z,18.63
2019-03-25T07:41:48.636Z,17.50
2019-03-25T07:44:20.271Z,18.17
2019-03-25T07:46:50.358Z,18.03
2019-03-25T07:49:20.259Z,17.87
2019-03-25T07:51:50.224Z,16.70
2019-03-25T07:54:20.231Z,18.57
2019-03-25T07:56:50.131Z,16.73
2019-03-25T07:59:20.332Z,16.47
2019-03-25T08:01:50.305Z,16.03
2019-03-25T08:04:20.182Z,17.00
2019-03-25T08:06:50.120Z,17.53
2019-03-25T08:09:20.155Z,17.63
2019-03-25T08:11:50.127Z,14.47
2019-03-25T08:14:20.001Z,15.70
2019-03-25T08:16:49.908Z,15.87
2019-03-25T08:19:19.827Z,16.20
2019-03-25T08:21:50.025Z,16.50
2019-03-25T08:24:19.930Z,16.00
2019-03-25T08:26:49.813Z,15.67
2019-03-25T08:29:19.695Z,16.17
2019-03-25T08:31:49.603Z,15.43
2019-03-25T08:34:19.519Z,15.00
2019-03-25T08:36:49.431Z,11.37
2019-03-25T08:39:19.342Z,10.70
2019-03-25T08:41:49.272Z,11.17
2019-03-25T08:44:19.179Z,14.07
2019-03-25T08:46:49.146Z,12.77
2019-03-25T08:49:19.022Z,14.83
2019-03-25T08:51:48.958Z,13.17
2019-03-25T08:54:18.860Z,13.23
2019-03-25T08:56:48.771Z,13.43
2019-03-25T08:59:18.739Z,13.60
2019-03-25T09:01:48.638Z,13.50
2019-03-25T09:04:18.650Z,14.17
2019-03-25T09:06:48.558Z,13.63
2019-03-25T09:09:18.491Z,14.47
2019-03-25T09:11:48.565Z,15.07
2019-03-25T09:14:18.482Z,13.80
2019-03-25T09:16:48.383Z,14.57
2019-03-25T09:19:18.333Z,13.77
2019-03-25T09:21:48.217Z,13.60
2019-03-25T09:24:18.147Z,14.00
2019-03-25T09:26:48.082Z,13.90
2019-03-25T09:29:18.004Z,15.00
2019-03-25T09:31:47.920Z,14.90
2019-03-25T09:34:17.816Z,15.40
2019-03-25T09:36:47.770Z,15.07
2019-03-25T09:39:17.687Z,14.73
2019-03-25T09:41:47.614Z,14.40
2019-03-25T09:44:17.508Z,13.67
2019-03-25T09:46:47.392Z,14.83
2019-03-25T09:49:17.319Z,19.43
2019-03-25T09:51:47.223Z,14.20
2019-03-25T09:54:17.162Z,13.80
2019-03-25T09:56:47.199Z,13.83
2019-03-25T09:59:17.089Z,13.90
2019-03-25T10:01:47.014Z,14.67
2019-03-25T10:04:16.950Z,13.63
2019-03-25T10:06:47.035Z,14.23
2019-03-25T10:09:17.042Z,13.73
2019-03-25T10:11:46.973Z,13.70
2019-03-25T10:14:16.876Z,12.63
2019-03-25T10:16:46.785Z,13.10
2019-03-25T10:19:16.685Z,13.13
2019-03-25T10:21:46.603Z,13.10
2019-03-25T10:24:16.564Z,13.03
2019-03-25T10:26:46.460Z,13.23
2019-03-25T10:29:16.348Z,13.45
2019-03-25T10:31:46.284Z,14.15
2019-03-25T10:34:16.190Z,13.55
2019-03-25T10:36:46.093Z,13.78
2019-03-25T10:39:16.008Z,13.40
2019-03-25T10:41:45.935Z,12.93
2019-03-25T10:44:15.844Z,13.72
2019-03-25T10:46:45.742Z,13.15
2019-03-25T10:49:16.397Z,13.85
2019-03-25T10:51:46.485Z,13.68
2019-03-25T10:54:16.458Z,12.20
2019-03-25T10:56:49.265Z,12.85
2019-03-25T10:59:18.000Z,12.58
2019-03-25T11:01:47.888Z,12.10
2019-03-25T11:04:17.781Z,12.05
2019-03-25T11:06:47.681Z,12.23
2019-03-25T11:09:17.582Z,12.58
2019-03-25T11:11:47.488Z,12.20
2019-03-25T11:14:17.446Z,12.65
2019-03-25T11:16:47.434Z,12.05
2019-03-25T11:19:17.351Z,11.88
2019-03-25T11:21:47.308Z,12.43
2019-03-25T11:24:17.232Z,11.85
2019-03-25T11:26:47.158Z,12.45
2019-03-25T11:29:17.066Z,11.78
2019-03-25T11:31:46.932Z,11.57
2019-03-25T11:34:16.830Z,11.63
2019-03-25T11:36:46.735Z,10.75
2019-03-25T11:39:16.655Z,10.50
2019-03-25T11:41:46.588Z,12.18
2019-03-25T11:44:16.510Z,11.18
2019-03-25T11:46:46.497Z,10.85
2019-03-25T11:49:16.881Z,11.05
2019-03-25T11:51:46.820Z,11.12
2019-03-25T11:54:16.805Z,10.48
2019-03-25T11:56:46.738Z,10.72
2019-03-25T11:59:18.864Z,11.33
2019-03-25T12:01:48.255Z,9.78
2019-03-25T12:04:18.147Z,10.58
2019-03-25T12:06:48.071Z,10.10
2019-03-25T12:09:18.260Z,10.65
2019-03-25T12:11:48.179Z,10.00
2019-03-25T12:14:18.072Z,9.70
2019-03-25T12:16:47.994Z,10.18
2019-03-25T12:19:17.928Z,9.25
2019-03-25T12:21:47.815Z,10.05
2019-03-25T12:24:17.755Z,9.60
2019-03-25T12:26:47.705Z,10.03
2019-03-25T12:29:17.619Z,10.53
2019-03-25T12:31:47.506Z,9.33
2019-03-25T12:34:17.418Z,8.55
2019-03-25T12:36:47.337Z,9.75
2019-03-25T12:39:17.247Z,9.40
2019-03-25T12:41:47.167Z,9.30
2019-03-25T12:44:17.112Z,9.88
2019-03-25T12:46:47.006Z,9.30
2019-03-25T12:49:16.904Z,9.35
2019-03-25T12:51:48.479Z,8.98
2019-03-25T12:54:18.632Z,8.85
2019-03-25T12:56:48.558Z,8.30
2019-03-25T12:59:18.471Z,8.75
2019-03-25T13:01:53.228Z,8.43
2019-03-25T13:04:20.154Z,7.85
2019-03-25T13:06:50.100Z,8.85
2019-03-25T13:09:20.002Z,8.43
2019-03-25T13:11:49.884Z,8.80
2019-03-25T13:14:19.785Z,8.10
2019-03-25T13:16:49.694Z,8.43
2019-03-25T13:19:19.604Z,8.53
2019-03-25T13:21:49.484Z,7.85
2019-03-25T13:24:19.395Z,8.00
2019-03-25T13:26:49.410Z,8.70
2019-03-25T13:29:19.329Z,7.78
2019-03-25T13:31:49.243Z,8.38
2019-03-25T13:34:19.154Z,8.10
2019-03-25T13:36:49.092Z,8.40
2019-03-25T13:39:19.013Z,8.85
2019-03-25T13:41:48.933Z,8.03
2019-03-25T13:44:18.863Z,8.05
2019-03-25T13:46:48.779Z,8.45
2019-03-25T13:49:18.688Z,8.45
2019-03-25T13:51:48.610Z,7.72
2019-03-25T13:54:37.883Z,7.75
2019-03-25T13:57:07.769Z,7.95
2019-03-25T13:59:37.689Z,7.40
2019-03-25T14:02:07.631Z,8.00
2019-03-25T14:04:37.560Z,8.80
2019-03-25T14:07:07.491Z,8.20
2019-03-25T14:09:37.382Z,7.70
2019-03-25T14:12:07.275Z,8.35
2019-03-25T14:14:37.187Z,7.35
2019-03-25T14:17:07.088Z,7.17
2019-03-25T14:19:37.047Z,7.37
2019-03-25T14:22:06.963Z,7.47
2019-03-25T14:24:37.824Z,7.80
2019-03-25T14:27:07.749Z,7.97
2019-03-25T14:29:37.744Z,7.62
2019-03-25T14:32:07.721Z,7.50
2019-03-25T14:34:44.734Z,7.62
2019-03-25T14:37:09.254Z,7.77
2019-03-25T14:39:39.313Z,8.33
2019-03-25T14:42:09.233Z,7.00
2019-03-25T14:44:39.177Z,16.50
2019-03-25T14:47:09.114Z,6.62
2019-03-25T14:49:39.014Z,6.30
2019-03-25T14:52:09.043Z,5.60
2019-03-25T14:54:40.102Z,5.60
2019-03-25T14:57:10.298Z,6.40
2019-03-25T14:59:40.247Z,5.85
2019-03-25T15:02:10.147Z,6.50
2019-03-25T15:04:40.052Z,5.80
2019-03-25T15:07:09.965Z,6.03
2019-03-25T15:09:39.875Z,6.00
2019-03-25T15:12:09.758Z,6.30
2019-03-25T15:14:39.703Z,5.97
2019-03-25T15:17:09.607Z,6.10
2019-03-25T15:19:39.644Z,6.30
2019-03-25T15:22:08.028Z,6.43
2019-03-25T15:24:37.935Z,5.90
2019-03-25T15:27:07.922Z,6.50
2019-03-25T15:29:37.847Z,6.47
2019-03-25T15:32:07.734Z,6.57
2019-03-25T15:34:37.633Z,5.93
2019-03-25T15:37:07.570Z,6.20
2019-03-25T15:39:46.312Z,6.33
2019-03-25T15:42:09.150Z,6.33
2019-03-25T15:44:39.091Z,6.42
2019-03-25T15:47:08.976Z,6.23
2019-03-25T15:49:38.883Z,6.67
2019-03-25T15:52:08.815Z,7.08
2019-03-25T15:54:38.719Z,7.70
2019-03-25T15:57:08.680Z,7.62
2019-03-25T15:59:38.560Z,7.45
2019-03-25T16:02:08.450Z,7.58
2019-03-25T16:04:38.368Z,7.30
2019-03-25T16:07:08.386Z,7.10
2019-03-25T16:09:38.323Z,8.00
2019-03-25T16:12:08.268Z,8.60
2019-03-25T16:14:38.286Z,8.45
2019-03-25T16:17:08.223Z,8.48
2019-03-25T16:19:38.123Z,8.50
2019-03-25T16:22:08.239Z,7.70
2019-03-25T16:24:38.127Z,7.70
2019-03-25T16:27:08.042Z,8.40
2019-03-25T16:29:37.918Z,9.40
2019-03-25T16:32:07.836Z,8.10
2019-03-25T16:34:38.705Z,8.10
2019-03-25T16:37:08.661Z,9.60
2019-03-25T16:39:38.603Z,9.03
2019-03-25T16:42:08.587Z,9.17
2019-03-25T16:44:38.509Z,9.37
2019-03-25T16:47:08.425Z,8.67
2019-03-25T16:49:38.371Z,9.10
2019-03-25T16:52:08.284Z,7.33
2019-03-25T16:54:38.199Z,8.13
2019-03-25T16:57:08.113Z,8.00
2019-03-25T16:59:40.495Z,8.57
2019-03-25T17:02:09.660Z,8.47
2019-03-25T17:04:39.638Z,8.40
2019-03-25T17:07:09.557Z,8.33
2019-03-25T17:09:39.497Z,8.30
2019-03-25T17:12:09.421Z,8.37
2019-03-25T17:14:39.460Z,9.43
2019-03-25T17:17:09.405Z,8.53
2019-03-25T17:19:39.385Z,8.83
2019-03-25T17:22:09.328Z,8.30
2019-03-25T17:24:39.238Z,8.83
2019-03-25T17:27:09.150Z,9.87
2019-03-25T17:29:39.148Z,10.27
2019-03-25T17:32:09.105Z,9.60
2019-03-25T17:34:39.082Z,10.50
2019-03-25T17:37:09.007Z,11.17
2019-03-25T17:39:39.012Z,10.60
2019-03-25T17:42:08.953Z,10.10
2019-03-25T17:44:38.880Z,10.47
2019-03-25T17:47:08.810Z,11.30
2019-03-25T17:49:38.748Z,12.60
2019-03-25T17:52:08.697Z,11.97
2019-03-25T17:54:38.624Z,11.83
2019-03-25T17:57:08.738Z,11.67
2019-03-25T17:59:38.641Z,11.83
2019-03-25T18:02:08.536Z,16.73
2019-03-25T18:04:38.490Z,23.73
2019-03-25T18:07:08.405Z,14.90
2019-03-25T18:09:39.890Z,11.63
2019-03-25T18:12:09.787Z,12.47
2019-03-25T18:14:39.696Z,13.27
2019-03-25T18:17:09.644Z,18.13
2019-03-25T18:19:39.658Z,12.57
2019-03-25T18:22:09.611Z,12.40
2019-03-25T18:24:39.550Z,11.53
2019-03-25T18:27:09.478Z,12.73
2019-03-25T18:29:39.445Z,12.90
2019-03-25T18:32:09.457Z,13.60
2019-03-25T18:34:40.196Z,12.77
2019-03-25T18:37:10.719Z,12.70
2019-03-25T18:39:40.621Z,12.80
2019-03-25T18:42:10.526Z,13.57
2019-03-25T18:44:40.487Z,14.23
2019-03-25T18:47:10.453Z,13.23
2019-03-25T18:49:40.385Z,13.30
2019-03-25T18:52:10.705Z,12.67
2019-03-25T18:54:40.660Z,12.33
2019-03-25T18:57:10.744Z,12.10
2019-03-25T18:59:40.657Z,13.27
2019-03-25T19:02:10.638Z,13.33
2019-03-25T19:04:40.569Z,13.13
2019-03-25T19:07:10.597Z,14.10
2019-03-25T19:09:40.534Z,14.07
2019-03-25T19:12:10.422Z,17.07
2019-03-25T19:14:40.347Z,15.70
2019-03-25T19:17:10.268Z,14.37
2019-03-25T19:19:40.175Z,16.23
2019-03-25T19:22:12.625Z,15.53
2019-03-25T19:24:41.742Z,16.83
2019-03-25T19:27:12.664Z,45.10
2019-03-25T19:29:42.640Z,13.57
2019-03-25T19:32:12.566Z,13.60
2019-03-25T19:34:42.491Z,15.63
2019-03-25T19:37:12.426Z,16.93
2019-03-25T19:39:42.353Z,20.07
2019-03-25T19:42:12.303Z,17.87
2019-03-25T19:44:43.361Z,19.70
2019-03-25T19:47:13.329Z,20.80
2019-03-25T19:49:43.269Z,19.60
2019-03-25T19:52:13.206Z,18.90
2019-03-25T19:54:45.466Z,21.93
2019-03-25T19:57:15.423Z,22.27
2019-03-25T19:59:45.369Z,22.53
2019-03-25T20:02:19.273Z,22.20
2019-03-25T20:04:46.962Z,21.57
2019-03-25T20:07:16.951Z,20.63
2019-03-25T20:09:46.896Z,18.80
2019-03-25T20:12:16.806Z,17.33
2019-03-25T20:14:46.787Z,15.47
2019-03-25T20:17:16.716Z,14.60
2019-03-25T20:19:46.674Z,14.10
2019-03-25T20:22:16.626Z,13.43
2019-03-25T20:24:48.815Z,14.47
2019-03-25T20:27:19.071Z,16.43
2019-03-25T20:29:49.088Z,15.47
2019-03-25T20:32:30.996Z,13.80
2019-03-25T20:34:50.641Z,13.53
2019-03-25T20:37:20.576Z,13.80
2019-03-25T20:39:50.499Z,13.70
2019-03-25T20:42:20.415Z,13.33
2019-03-25T20:44:50.405Z,13.73
2019-03-25T20:47:20.400Z,13.67
2019-03-25T20:49:50.344Z,15.50
2019-03-25T20:52:20.311Z,14.67
2019-03-25T20:54:50.417Z,16.90
2019-03-25T20:57:20.434Z,13.47
2019-03-25T20:59:50.358Z,15.53
2019-03-25T21:02:20.280Z,15.73
2019-03-25T21:04:50.309Z,16.37
2019-03-25T21:07:20.743Z,15.70
2019-03-25T21:09:50.686Z,14.53
2019-03-25T21:12:20.621Z,15.20
2019-03-25T21:14:50.642Z,15.33
2019-03-25T21:17:20.598Z,14.47
2019-03-25T21:19:50.603Z,14.70
2019-03-25T21:22:20.539Z,14.17
2019-03-25T21:24:50.925Z,12.57
2019-03-25T21:27:20.836Z,12.10
2019-03-25T21:29:50.813Z,11.73
2019-03-25T21:32:20.773Z,11.47
2019-03-25T21:34:50.743Z,12.00
2019-03-25T21:37:20.663Z,11.37
2019-03-25T21:39:50.695Z,11.63
2019-03-25T21:42:20.642Z,10.47
2019-03-25T21:44:50.535Z,10.80
2019-03-25T21:47:20.482Z,10.57
2019-03-25T21:49:50.404Z,11.33
2019-03-25T21:52:20.426Z,9.80
2019-03-25T21:54:50.422Z,9.37
2019-03-25T21:57:20.311Z,9.43
2019-03-25T21:59:50.419Z,10.03
2019-03-25T22:02:23.174Z,9.00
2019-03-25T22:04:53.173Z,8.10
2019-03-25T22:07:23.078Z,8.77
2019-03-25T22:09:52.991Z,9.03
2019-03-25T22:12:22.927Z,8.73
2019-03-25T22:14:52.816Z,7.97
2019-03-25T22:17:22.766Z,8.50
2019-03-25T22:19:52.679Z,9.60
2019-03-25T22:22:22.695Z,9.20
2019-03-25T22:24:52.598Z,9.27
2019-03-25T22:27:23.388Z,10.87
2019-03-25T22:29:53.320Z,9.67
2019-03-25T22:32:23.209Z,9.07
2019-03-25T22:34:53.116Z,9.53
2019-03-25T22:37:23.011Z,8.87
2019-03-25T22:39:53.021Z,8.63
2019-03-25T22:42:22.943Z,8.70
2019-03-25T22:44:52.847Z,9.07
2019-03-25T22:47:22.811Z,9.33
2019-03-25T22:49:52.725Z,9.23
2019-03-25T22:52:22.641Z,9.30
2019-03-25T22:54:52.597Z,9.97
2019-03-25T22:57:22.556Z,10.53
2019-03-25T22:59:52.526Z,11.33
2019-03-25T23:02:22.462Z,11.17
2019-03-25T23:04:52.386Z,11.20
2019-03-25T23:07:22.319Z,10.40
2019-03-25T23:09:52.242Z,11.10
2019-03-25T23:12:22.211Z,12.87
2019-03-25T23:14:52.210Z,11.83
2019-03-25T23:17:22.198Z,10.20
2019-03-25T23:19:52.216Z,11.07
2019-03-25T23:22:22.231Z,10.57
2019-03-25T23:24:52.227Z,10.17
2019-03-25T23:27:22.210Z,10.97
2019-03-25T23:29:52.126Z,11.13
2019-03-25T23:32:22.067Z,11.03
2019-03-25T23:34:52.099Z,12.07
2019-03-25T23:37:22.057Z,13.13
2019-03-25T23:39:52.054Z,12.27
2019-03-25T23:42:21.972Z,14.40
2019-03-25T23:44:51.862Z,14.23
2019-03-25T23:47:21.778Z,12.73
2019-03-25T23:49:51.736Z,13.40
2019-03-25T23:52:21.674Z,13.87
2019-03-25T23:54:51.573Z,14.30
2019-03-25T23:57:21.480Z,14.33
2019-03-25T23:59:51.453Z,13.57
